Nord Mykonos — V7SN5 — position and weather

sailwx.info

Track history (hours):
 
Tides and Currents Weather Stations Pressure Air Temp Water Temp Dewpoint Dewpoint Depression Visibility Wind Speed Wind Dir Waves Ship Positions

Nord Mykonos

Last reported at 2017-Nov-05 20:21 UTC. Time now 2017-Nov-17 21:16 UTC.
Position N 46°16' E 030°54'.
Warning: this ship's position is 12 days out of date.

Length 180 m; draft 10 m.

Type: Cargo ship. MMSI: 538003686.

Date/timePositionNaut miles runAvg speedWind from/ knotsBaromVisibWave heightAir tempDewpointWater temp
2017-Nov-05 20:21N 46°16' E 030°54'411.0
2017-Nov-05 19:56N 46°20' E 030°55'511.1
2017-Nov-05 19:30N 46°25' E 030°55'511.2
2017-Nov-05 19:00N 46°30' E 030°55'24 8.5
2017-Nov-05 16:10N 46°36' E 031°29'2 9.0
2017-Nov-05 15:58N 46°35' E 031°31'7 8.6
2017-Nov-05 15:11N 46°36' E 031°41'2 8.6
2017-Nov-05 14:58N 46°36' E 031°44'4 8.7
2017-Nov-05 14:30N 46°36' E 031°50'4 8.7
2017-Nov-05 14:00N 46°39' E 031°55'4 8.7
2017-Nov-05 13:30N 46°43' E 031°56'4 8.2
2017-Nov-05 13:00N 46°47' E 031°53'4 8.6
2017-Nov-05 12:30N 46°50' E 031°56'5 9.2
2017-Nov-05 12:00N 46°54' E 032°01'  
2017-Nov-03 07:19N 46°56' E 032°01'0 0.0
2017-Nov-03 06:49N 46°56' E 032°01'0 0.0
2017-Nov-03 06:19N 46°56' E 032°01'0 0.0
2017-Nov-03 05:43N 46°56' E 032°01'0 0.0
2017-Nov-03 05:22N 46°56' E 032°01'0 0.0
2017-Nov-03 04:55N 46°56' E 032°01'0 0.0
2017-Nov-03 04:19N 46°56' E 032°01'0 0.0
2017-Nov-03 03:46N 46°56' E 032°01'0 0.0
2017-Nov-03 03:19N 46°56' E 032°01'0 0.0
2017-Nov-03 02:49N 46°56' E 032°01'0 0.0
2017-Nov-03 02:28N 46°56' E 032°01'0 0.0
2017-Nov-03 01:58N 46°56' E 032°01'0 0.0
2017-Nov-03 01:13N 46°56' E 032°01'0 0.0
2017-Nov-03 00:49N 46°56' E 032°01'0 0.0
2017-Nov-03 00:13N 46°56' E 032°01'0 0.0
2017-Nov-02 23:55N 46°56' E 032°01'0 0.0
2017-Nov-02 22:21N 46°56' E 032°01'0 0.4
2017-Nov-02 22:00N 46°56' E 032°01'3 5.7
2017-Nov-02 21:30N 46°53' E 032°00'611.9
2017-Nov-02 21:00N 46°49' E 031°54'510.1
2017-Nov-02 20:30N 46°44' E 031°56'611.4
2017-Nov-02 20:00N 46°38' E 031°55'611.7
2017-Nov-02 19:30N 46°36' E 031°47'612.2
2017-Nov-02 19:00N 46°36' E 031°38'910.9
2017-Nov-02 18:09N 46°35' E 031°25'210.0
2017-Nov-02 17:59N 46°35' E 031°22'16 6.7
2017-Nov-02 15:33N 46°33' E 030°59'0 5.7
2017-Nov-02 15:29N 46°33' E 030°58'3 5.8
2017-Nov-02 15:00N 46°30' E 030°57'4 8.0
2017-Nov-02 14:30N 46°26' E 030°57'4 7.0
2017-Nov-02 13:59N 46°23' E 030°59'3 6.3
2017-Nov-02 13:30N 46°22' E 031°03'  
2017-Oct-28 18:58N 40°54' E 028°57'4 7.9
2017-Oct-28 18:30N 40°51' E 028°53'293 9.5
2017-Oct-27 11:31N 37°36' E 024°11'010.9
2017-Oct-27 11:30N 37°36' E 024°11'  
Track history (hours):
 
Tides and Currents Weather Stations Pressure Air Temp Water Temp Dewpoint Dewpoint Depression Visibility Wind Speed Wind Dir Waves Ship Positions

Nord Mykonos

Last reported at 2017-Nov-05 20:21 UTC. Time now 2017-Nov-17 21:16 UTC.
Position N 46°16' E 030°54'.
Warning: this ship's position is 12 days out of date.

Length 180 m; draft 10 m.

Type: Cargo ship. MMSI: 538003686.

Date/timePositionNaut miles runAvg speedWind from/ knotsBaromVisibWave heightAir tempDewpointWater temp
2017-Nov-05 20:21N 46°16' E 030°54'411.0
2017-Nov-05 19:56N 46°20' E 030°55'511.1
2017-Nov-05 19:30N 46°25' E 030°55'511.2
2017-Nov-05 19:00N 46°30' E 030°55'24 8.5
2017-Nov-05 16:10N 46°36' E 031°29'2 9.0
2017-Nov-05 15:58N 46°35' E 031°31'7 8.6
2017-Nov-05 15:11N 46°36' E 031°41'2 8.6
2017-Nov-05 14:58N 46°36' E 031°44'4 8.7
2017-Nov-05 14:30N 46°36' E 031°50'4 8.7
2017-Nov-05 14:00N 46°39' E 031°55'4 8.7
2017-Nov-05 13:30N 46°43' E 031°56'4 8.2
2017-Nov-05 13:00N 46°47' E 031°53'4 8.6
2017-Nov-05 12:30N 46°50' E 031°56'5 9.2
2017-Nov-05 12:00N 46°54' E 032°01'  
2017-Nov-03 07:19N 46°56' E 032°01'0 0.0
2017-Nov-03 06:49N 46°56' E 032°01'0 0.0
2017-Nov-03 06:19N 46°56' E 032°01'0 0.0
2017-Nov-03 05:43N 46°56' E 032°01'0 0.0
2017-Nov-03 05:22N 46°56' E 032°01'0 0.0
2017-Nov-03 04:55N 46°56' E 032°01'0 0.0
2017-Nov-03 04:19N 46°56' E 032°01'0 0.0
2017-Nov-03 03:46N 46°56' E 032°01'0 0.0
2017-Nov-03 03:19N 46°56' E 032°01'0 0.0
2017-Nov-03 02:49N 46°56' E 032°01'0 0.0
2017-Nov-03 02:28N 46°56' E 032°01'0 0.0
2017-Nov-03 01:58N 46°56' E 032°01'0 0.0
2017-Nov-03 01:13N 46°56' E 032°01'0 0.0
2017-Nov-03 00:49N 46°56' E 032°01'0 0.0
2017-Nov-03 00:13N 46°56' E 032°01'0 0.0
2017-Nov-02 23:55N 46°56' E 032°01'0 0.0
2017-Nov-02 22:21N 46°56' E 032°01'0 0.4
2017-Nov-02 22:00N 46°56' E 032°01'3 5.7
2017-Nov-02 21:30N 46°53' E 032°00'611.9
2017-Nov-02 21:00N 46°49' E 031°54'510.1
2017-Nov-02 20:30N 46°44' E 031°56'611.4
2017-Nov-02 20:00N 46°38' E 031°55'611.7
2017-Nov-02 19:30N 46°36' E 031°47'612.2
2017-Nov-02 19:00N 46°36' E 031°38'910.9
2017-Nov-02 18:09N 46°35' E 031°25'210.0
2017-Nov-02 17:59N 46°35' E 031°22'16 6.7
2017-Nov-02 15:33N 46°33' E 030°59'0 5.7
2017-Nov-02 15:29N 46°33' E 030°58'3 5.8
2017-Nov-02 15:00N 46°30' E 030°57'4 8.0
2017-Nov-02 14:30N 46°26' E 030°57'4 7.0
2017-Nov-02 13:59N 46°23' E 030°59'3 6.3
2017-Nov-02 13:30N 46°22' E 031°03'  
2017-Oct-28 18:58N 40°54' E 028°57'4 7.9
2017-Oct-28 18:30N 40°51' E 028°53'293 9.5
2017-Oct-27 11:31N 37°36' E 024°11'010.9
2017-Oct-27 11:30N 37°36' E 024°11'  

Dump ship's entire track history